sensor_id;sensor_type;location;lat;lon;timestamp;pressure;altitude;pressure_sealevel;temperature;humidity
20444;BME280;10381;53.730;10.010;2023-02-12T00:02:30;103117.25;;;5.64;100.00
20444;BME280;10381;53.730;10.010;2023-02-12T00:06:30;103121.66;;;5.64;100.00
20444;BME280;10381;53.730;10.010;2023-02-12T00:10:30;103127.75;;;5.66;100.00
20444;BME280;10381;53.730;10.010;2023-02-12T00:14:31;103134.81;;;5.64;100.00
20444;BME280;10381;53.730;10.010;2023-02-12T00:18:31;103139.22;;;5.63;100.00
20444;BME280;10381;53.730;10.010;2023-02-12T00:22:31;103143.69;;;5.60;100.00
20444;BME280;10381;53.730;10.010;2023-02-12T00:26:32;103141.88;;;5.62;100.00
20444;BME280;10381;53.730;10.010;2023-02-12T00:30:32;103133.97;;;5.62;100.00
20444;BME280;10381;53.730;10.010;2023-02-12T00:34:33;103134.16;;;5.55;100.00
20444;BME280;10381;53.730;10.010;2023-02-12T00:38:34;103145.63;;;5.53;100.00
20444;BME280;10381;53.730;10.010;2023-02-12T00:42:34;103146.53;;;5.52;100.00
20444;BME280;10381;53.730;10.010;2023-02-12T00:46:34;103146.56;;;5.50;100.00
20444;BME280;10381;53.730;10.010;2023-02-12T00:50:35;103154.53;;;5.49;100.00
20444;BME280;10381;53.730;10.010;2023-02-12T00:54:35;103151.03;;;5.48;100.00
20444;BME280;10381;53.730;10.010;2023-02-12T00:58:36;103146.56;;;5.50;100.00
20444;BME280;10381;53.730;10.010;2023-02-12T01:02:36;103154.56;;;5.47;100.00
20444;BME280;10381;53.730;10.010;2023-02-12T01:06:36;103164.19;;;5.48;100.00
20444;BME280;10381;53.730;10.010;2023-02-12T01:10:36;103170.34;;;5.47;100.00
20444;BME280;10381;53.730;10.010;2023-02-12T01:14:37;103161.75;;;5.41;100.00
20444;BME280;10381;53.730;10.010;2023-02-12T01:18:37;103175.00;;;5.38;100.00
20444;BME280;10381;53.730;10.010;2023-02-12T01:22:37;103173.28;;;5.37;100.00
20444;BME280;10381;53.730;10.010;2023-02-12T01:26:38;103170.44;;;5.44;100.00
20444;BME280;10381;53.730;10.010;2023-02-12T01:30:38;103167.13;;;5.38;100.00
20444;BME280;10381;53.730;10.010;2023-02-12T01:34:38;103170.59;;;5.38;100.00
20444;BME280;10381;53.730;10.010;2023-02-12T01:38:39;103160.22;;;5.33;100.00
20444;BME280;10381;53.730;10.010;2023-02-12T01:42:39;103167.91;;;5.41;100.00
20444;BME280;10381;53.730;10.010;2023-02-12T01:46:41;103167.06;;;5.39;100.00
20444;BME280;10381;53.730;10.010;2023-02-12T01:50:45;103169.66;;;5.41;100.00
20444;BME280;10381;53.730;10.010;2023-02-12T01:54:47;103174.03;;;5.40;100.00
20444;BME280;10381;53.730;10.010;2023-02-12T01:58:51;103179.28;;;5.42;100.00
20444;BME280;10381;53.730;10.010;2023-02-12T02:02:57;103172.09;;;5.47;100.00
20444;BME280;10381;53.730;10.010;2023-02-12T02:07:01;103168.69;;;5.43;100.00
20444;BME280;10381;53.730;10.010;2023-02-12T02:11:03;103169.56;;;5.44;100.00
20444;BME280;10381;53.730;10.010;2023-02-12T02:15:25;103166.97;;;5.42;100.00
20444;BME280;10381;53.730;10.010;2023-02-12T02:23:44;103183.56;;;5.44;100.00
20444;BME280;10381;53.730;10.010;2023-02-12T02:27:59;103181.78;;;5.46;100.00
20444;BME280;10381;53.730;10.010;2023-02-12T02:32:27;103174.78;;;5.45;100.00
20444;BME280;10381;53.730;10.010;2023-02-12T02:36:36;103179.97;;;5.48;100.00
20444;BME280;10381;53.730;10.010;2023-02-12T02:40:50;103179.00;;;5.51;100.00
20444;BME280;10381;53.730;10.010;2023-02-12T02:45:01;103179.16;;;5.46;100.00
20444;BME280;10381;53.730;10.010;2023-02-12T02:49:09;103188.78;;;5.46;100.00
20444;BME280;10381;53.730;10.010;2023-02-12T02:53:21;103181.78;;;5.46;100.00
20444;BME280;10381;53.730;10.010;2023-02-12T03:10:26;103179.28;;;5.42;100.00
20444;BME280;10381;53.730;10.010;2023-02-12T03:14:36;103177.50;;;5.42;100.00
20444;BME280;10381;53.730;10.010;2023-02-12T03:19:10;103187.09;;;5.43;100.00
20444;BME280;10381;53.730;10.010;2023-02-12T03:23:25;103188.03;;;5.41;100.00
20444;BME280;10381;53.730;10.010;2023-02-12T03:31:53;103190.81;;;5.36;100.00
20444;BME280;10381;53.730;10.010;2023-02-12T03:36:01;103188.94;;;5.41;100.00
20444;BME280;10381;53.730;10.010;2023-02-12T03:40:11;103191.75;;;5.33;100.00
20444;BME280;10381;53.730;10.010;2023-02-12T03:44:46;103203.19;;;5.32;100.00
20444;BME280;10381;53.730;10.010;2023-02-12T03:49:06;103196.16;;;5.33;100.00
20444;BME280;10381;53.730;10.010;2023-02-12T03:53:09;103203.91;;;5.38;100.00
20444;BME280;10381;53.730;10.010;2023-02-12T03:57:13;103210.13;;;5.35;100.00
20444;BME280;10381;53.730;10.010;2023-02-12T04:01:16;103206.53;;;5.38;100.00
20444;BME280;10381;53.730;10.010;2023-02-12T04:05:19;103215.28;;;5.38;100.00
20444;BME280;10381;53.730;10.010;2023-02-12T04:09:21;103221.38;;;5.40;100.00
20444;BME280;10381;53.730;10.010;2023-02-12T04:13:32;103218.66;;;5.43;100.00
20444;BME280;10381;53.730;10.010;2023-02-12T04:22:22;103226.66;;;5.39;100.00
20444;BME280;10381;53.730;10.010;2023-02-12T04:26:36;103231.00;;;5.41;100.00
20444;BME280;10381;53.730;10.010;2023-02-12T04:30:46;103242.38;;;5.42;100.00
20444;BME280;10381;53.730;10.010;2023-02-12T04:35:02;103233.66;;;5.40;100.00
20444;BME280;10381;53.730;10.010;2023-02-12T04:39:09;103228.28;;;5.44;100.00
20444;BME280;10381;53.730;10.010;2023-02-12T04:43:11;103229.94;;;5.47;100.00
20444;BME280;10381;53.730;10.010;2023-02-12T04:47:13;103238.72;;;5.46;100.00
20444;BME280;10381;53.730;10.010;2023-02-12T04:51:14;103236.97;;;5.46;100.00
20444;BME280;10381;53.730;10.010;2023-02-12T04:55:14;103240.47;;;5.47;100.00
20444;BME280;10381;53.730;10.010;2023-02-12T04:59:15;103243.06;;;5.48;100.00
20444;BME280;10381;53.730;10.010;2023-02-12T05:03:16;103235.19;;;5.48;100.00
20444;BME280;10381;53.730;10.010;2023-02-12T05:07:16;103236.06;;;5.47;100.00
20444;BME280;10381;53.730;10.010;2023-02-12T05:11:16;103232.56;;;5.48;100.00
20444;BME280;10381;53.730;10.010;2023-02-12T05:15:17;103244.69;;;5.52;100.00
20444;BME280;10381;53.730;10.010;2023-02-12T05:19:17;103253.50;;;5.51;100.00
20444;BME280;10381;53.730;10.010;2023-02-12T05:23:18;103249.94;;;5.52;100.00
20444;BME280;10381;53.730;10.010;2023-02-12T05:27:18;103240.28;;;5.53;100.00
20444;BME280;10381;53.730;10.010;2023-02-12T05:31:19;103249.84;;;5.55;100.00
20444;BME280;10381;53.730;10.010;2023-02-12T05:35:19;103258.56;;;5.58;100.00
20444;BME280;10381;53.730;10.010;2023-02-12T05:39:20;103251.72;;;5.52;100.00
20444;BME280;10381;53.730;10.010;2023-02-12T05:43:20;103254.34;;;5.52;100.00
20444;BME280;10381;53.730;10.010;2023-02-12T05:47:20;103261.31;;;5.53;100.00
20444;BME280;10381;53.730;10.010;2023-02-12T05:51:23;103257.84;;;5.52;100.00
20444;BME280;10381;53.730;10.010;2023-02-12T05:55:24;103251.72;;;5.52;100.00
20444;BME280;10381;53.730;10.010;2023-02-12T05:59:24;103258.78;;;5.50;100.00
20444;BME280;10381;53.730;10.010;2023-02-12T06:03:25;103264.88;;;5.52;100.00
20444;BME280;10381;53.730;10.010;2023-02-12T06:07:25;103257.81;;;5.54;100.00
20444;BME280;10381;53.730;10.010;2023-02-12T06:11:26;103256.94;;;5.53;100.00
20444;BME280;10381;53.730;10.010;2023-02-12T06:15:27;103256.94;;;5.53;100.00
20444;BME280;10381;53.730;10.010;2023-02-12T06:19:27;103252.53;;;5.54;100.00
20444;BME280;10381;53.730;10.010;2023-02-12T06:23:27;103261.28;;;5.54;100.00
20444;BME280;10381;53.730;10.010;2023-02-12T06:27:27;103259.50;;;5.55;100.00
20444;BME280;10381;53.730;10.010;2023-02-12T06:31:31;103274.34;;;5.58;100.00
20444;BME280;10381;53.730;10.010;2023-02-12T06:35:34;103272.50;;;5.61;100.00
20444;BME280;10381;53.730;10.010;2023-02-12T06:39:34;103273.28;;;5.65;100.00
20444;BME280;10381;53.730;10.010;2023-02-12T06:43:35;103270.72;;;5.62;100.00
20444;BME280;10381;53.730;10.010;2023-02-12T06:47:35;103276.78;;;5.65;100.00
20444;BME280;10381;53.730;10.010;2023-02-12T06:51:35;103289.00;;;5.68;100.00
20444;BME280;10381;53.730;10.010;2023-02-12T06:55:37;103299.31;;;5.74;100.00
20444;BME280;10381;53.730;10.010;2023-02-12T06:59:37;103302.69;;;5.79;100.00
20444;BME280;10381;53.730;10.010;2023-02-12T07:03:39;103302.03;;;5.71;100.00
20444;BME280;10381;53.730;10.010;2023-02-12T07:07:40;103308.13;;;5.73;100.00
20444;BME280;10381;53.730;10.010;2023-02-12T07:11:40;103318.59;;;5.74;100.00
20444;BME280;10381;53.730;10.010;2023-02-12T07:15:40;103321.16;;;5.78;100.00
20444;BME280;10381;53.730;10.010;2023-02-12T07:19:41;103322.84;;;5.80;100.00
20444;BME280;10381;53.730;10.010;2023-02-12T07:23:45;103321.78;;;5.86;100.00
20444;BME280;10381;53.730;10.010;2023-02-12T07:27:47;103324.31;;;5.90;100.00
20444;BME280;10381;53.730;10.010;2023-02-12T07:31:47;103338.44;;;5.86;100.00
20444;BME280;10381;53.730;10.010;2023-02-12T07:35:47;103338.25;;;5.94;100.00
20444;BME280;10381;53.730;10.010;2023-02-12T07:39:48;103341.78;;;5.91;100.00
20444;BME280;10381;53.730;10.010;2023-02-12T07:43:53;103339.13;;;5.93;100.00
20444;BME280;10381;53.730;10.010;2023-02-12T07:47:54;103342.69;;;5.92;100.00
20444;BME280;10381;53.730;10.010;2023-02-12T07:51:54;103344.22;;;6.01;100.00
20444;BME280;10381;53.730;10.010;2023-02-12T07:56:09;103347.75;;;6.00;100.00
20444;BME280;10381;53.730;10.010;2023-02-12T08:00:11;103356.16;;;6.12;100.00
20444;BME280;10381;53.730;10.010;2023-02-12T08:04:13;103347.28;;;6.16;100.00
20444;BME280;10381;53.730;10.010;2023-02-12T08:08:15;103361.19;;;6.20;100.00
20444;BME280;10381;53.730;10.010;2023-02-12T08:12:15;103364.03;;;6.14;100.00
20444;BME280;10381;53.730;10.010;2023-02-12T08:16:18;103368.44;;;6.13;100.00
20444;BME280;10381;53.730;10.010;2023-02-12T08:20:19;103358.75;;;6.14;100.00
20444;BME280;10381;53.730;10.010;2023-02-12T08:24:19;103366.44;;;6.22;100.00
20444;BME280;10381;53.730;10.010;2023-02-12T08:28:21;103369.78;;;6.27;100.00
20444;BME280;10381;53.730;10.010;2023-02-12T08:32:22;103377.78;;;6.24;100.00
20444;BME280;10381;53.730;10.010;2023-02-12T08:36:27;103373.28;;;6.27;100.00
20444;BME280;10381;53.730;10.010;2023-02-12T08:40:28;103376.44;;;6.40;100.00
20444;BME280;10381;53.730;10.010;2023-02-12T08:44:29;103370.28;;;6.39;100.00
20444;BME280;10381;53.730;10.010;2023-02-12T08:48:30;103381.66;;;6.71;100.00
20444;BME280;10381;53.730;10.010;2023-02-12T08:52:30;103384.22;;;6.45;100.00
20444;BME280;10381;53.730;10.010;2023-02-12T08:56:32;103386.03;;;6.43;100.00
20444;BME280;10381;53.730;10.010;2023-02-12T09:00:33;103391.03;;;6.52;100.00
20444;BME280;10381;53.730;10.010;2023-02-12T09:04:34;103394.09;;;6.36;100.00
20444;BME280;10381;53.730;10.010;2023-02-12T09:08:36;103393.03;;;6.42;100.00
20444;BME280;10381;53.730;10.010;2023-02-12T09:12:36;103388.25;;;6.25;100.00
20444;BME280;10381;53.730;10.010;2023-02-12T09:16:37;103389.69;;;6.37;100.00
20444;BME280;10381;53.730;10.010;2023-02-12T09:20:41;103395.47;;;6.50;100.00
20444;BME280;10381;53.730;10.010;2023-02-12T09:24:41;103397.81;;;6.59;100.00
20444;BME280;10381;53.730;10.010;2023-02-12T09:28:42;103391.63;;;6.61;100.00
20444;BME280;10381;53.730;10.010;2023-02-12T09:32:43;103401.13;;;6.66;100.00
20444;BME280;10381;53.730;10.010;2023-02-12T09:36:43;103401.91;;;6.69;100.00
20444;BME280;10381;53.730;10.010;2023-02-12T09:41:17;103407.03;;;6.74;100.00
20444;BME280;10381;53.730;10.010;2023-02-12T09:45:26;103415.66;;;6.79;100.00
20444;BME280;10381;53.730;10.010;2023-02-12T09:49:44;103419.88;;;6.85;100.00
20444;BME280;10381;53.730;10.010;2023-02-12T09:53:55;103423.03;;;6.68;100.00
20444;BME280;10381;53.730;10.010;2023-02-12T09:58:01;103428.50;;;6.90;100.00
20444;BME280;10381;53.730;10.010;2023-02-12T10:02:12;103435.78;;;6.81;100.00
20444;BME280;10381;53.730;10.010;2023-02-12T10:06:16;103429.00;;;6.73;100.00
20444;BME280;10381;53.730;10.010;2023-02-12T10:10:46;103433.47;;;6.71;100.00
20444;BME280;10381;53.730;10.010;2023-02-12T10:14:52;103431.50;;;6.77;100.00
20444;BME280;10381;53.730;10.010;2023-02-12T10:19:18;103430.75;;;6.74;100.00
20444;BME280;10381;53.730;10.010;2023-02-12T10:27:45;103433.66;;;6.65;100.00
20444;BME280;10381;53.730;10.010;2023-02-12T10:31:52;103434.06;;;6.80;100.00
20444;BME280;10381;53.730;10.010;2023-02-12T10:36:10;103431.00;;;6.94;100.00
20444;BME280;10381;53.730;10.010;2023-02-12T10:40:24;103427.06;;;6.79;100.00
20444;BME280;10381;53.730;10.010;2023-02-12T10:44:27;103426.31;;;6.76;100.00
20444;BME280;10381;53.730;10.010;2023-02-12T10:48:37;103421.56;;;6.87;100.00
20444;BME280;10381;53.730;10.010;2023-02-12T10:52:55;103427.47;;;6.95;100.00
20444;BME280;10381;53.730;10.010;2023-02-12T10:56:58;103418.94;;;6.87;100.00
20444;BME280;10381;53.730;10.010;2023-02-12T11:01:00;103417.59;;;7.02;100.00
20444;BME280;10381;53.730;10.010;2023-02-12T11:05:23;103417.69;;;6.99;100.00
20444;BME280;10381;53.730;10.010;2023-02-12T11:09:29;103418.47;;;7.02;100.00
20444;BME280;10381;53.730;10.010;2023-02-12T11:13:30;103416.59;;;7.06;100.00
20444;BME280;10381;53.730;10.010;2023-02-12T11:17:34;103417.69;;;6.99;100.00
20444;BME280;10381;53.730;10.010;2023-02-12T11:21:35;103412.31;;;7.02;100.00
20444;BME280;10381;53.730;10.010;2023-02-12T11:25:36;103406.03;;;7.06;100.00
20444;BME280;10381;53.730;10.010;2023-02-12T11:29:37;103406.00;;;7.08;100.00
20444;BME280;10381;53.730;10.010;2023-02-12T11:33:37;103414.50;;;7.16;100.00
20444;BME280;10381;53.730;10.010;2023-02-12T11:37:42;103397.88;;;7.14;100.00
20444;BME280;10381;53.730;10.010;2023-02-12T11:41:42;103401.75;;;7.02;100.00
20444;BME280;10381;53.730;10.010;2023-02-12T11:45:45;103394.38;;;7.13;100.00
20444;BME280;10381;53.730;10.010;2023-02-12T11:49:54;103397.69;;;7.20;100.00
20444;BME280;10381;53.730;10.010;2023-02-12T11:53:58;103396.28;;;7.10;100.00
20444;BME280;10381;53.730;10.010;2023-02-12T12:02:33;103400.38;;;7.18;100.00
20444;BME280;10381;53.730;10.010;2023-02-12T12:06:48;103407.13;;;7.27;100.00
20444;BME280;10381;53.730;10.010;2023-02-12T12:11:01;103397.69;;;7.20;100.00
20444;BME280;10381;53.730;10.010;2023-02-12T12:15:28;103393.28;;;7.20;100.00
20444;BME280;10381;53.730;10.010;2023-02-12T12:19:55;103394.09;;;7.22;100.00
20444;BME280;10381;53.730;10.010;2023-02-12T12:24:02;103395.34;;;7.11;100.00
20444;BME280;10381;53.730;10.010;2023-02-12T12:32:29;103387.03;;;7.23;100.00
20444;BME280;10381;53.730;10.010;2023-02-12T12:41:16;103383.75;;;7.43;100.00
20444;BME280;10381;53.730;10.010;2023-02-12T12:46:06;103379.28;;;7.18;100.00
20444;BME280;10381;53.730;10.010;2023-02-12T13:03:31;103360.78;;;7.46;100.00
20444;BME280;10381;53.730;10.010;2023-02-12T13:12:29;103357.50;;;7.38;100.00
20444;BME280;10381;53.730;10.010;2023-02-12T13:16:39;103356.38;;;7.45;100.00
20444;BME280;10381;53.730;10.010;2023-02-12T13:25:18;103347.78;;;7.40;100.00
20444;BME280;10381;53.730;10.010;2023-02-12T13:29:20;103344.41;;;7.37;100.00
20444;BME280;10381;53.730;10.010;2023-02-12T13:33:25;103341.13;;;7.29;100.00
20444;BME280;10381;53.730;10.010;2023-02-12T13:37:41;103349.69;;;7.37;100.00
20444;BME280;10381;53.730;10.010;2023-02-12T13:41:51;103345.00;;;7.45;100.00
20444;BME280;10381;53.730;10.010;2023-02-12T13:59:00;103362.53;;;6.93;100.00
20444;BME280;10381;53.730;10.010;2023-02-12T14:03:07;103352.59;;;7.01;100.00
20444;BME280;10381;53.730;10.010;2023-02-12T14:07:09;103361.16;;;6.81;100.00
20444;BME280;10381;53.730;10.010;2023-02-12T14:11:17;103354.69;;;6.91;100.00
20444;BME280;10381;53.730;10.010;2023-02-12T14:15:27;103351.81;;;6.97;100.00
20444;BME280;10381;53.730;10.010;2023-02-12T14:23:50;103349.69;;;6.82;100.00
20444;BME280;10381;53.730;10.010;2023-02-12T14:27:52;103341.78;;;6.82;100.00
20444;BME280;10381;53.730;10.010;2023-02-12T14:31:53;103344.19;;;6.90;100.00
20444;BME280;10381;53.730;10.010;2023-02-12T14:44:36;103346.19;;;6.81;100.00
20444;BME280;10381;53.730;10.010;2023-02-12T14:48:52;103358.06;;;6.95;100.00
20444;BME280;10381;53.730;10.010;2023-02-12T14:53:02;103366.28;;;6.86;100.00
20444;BME280;10381;53.730;10.010;2023-02-12T14:57:10;103362.72;;;6.87;100.00
20444;BME280;10381;53.730;10.010;2023-02-12T15:01:27;103364.13;;;6.98;100.00
20444;BME280;10381;53.730;10.010;2023-02-12T15:05:32;103367.81;;;6.93;100.00
20444;BME280;10381;53.730;10.010;2023-02-12T15:09:39;103371.34;;;6.92;100.00
20444;BME280;10381;53.730;10.010;2023-02-12T15:13:48;103375.50;;;6.99;100.00
20444;BME280;10381;53.730;10.010;2023-02-12T15:17:58;103377.94;;;6.78;100.00
20444;BME280;10381;53.730;10.010;2023-02-12T15:22:00;103382.16;;;6.82;100.00
20444;BME280;10381;53.730;10.010;2023-02-12T15:26:03;103378.63;;;6.83;100.00
20444;BME280;10381;53.730;10.010;2023-02-12T15:30:05;103377.41;;;6.66;100.00
20444;BME280;10381;53.730;10.010;2023-02-12T15:34:06;103377.69;;;6.56;100.00
20444;BME280;10381;53.730;10.010;2023-02-12T15:38:06;103382.88;;;6.59;100.00
20444;BME280;10381;53.730;10.010;2023-02-12T15:42:33;103391.03;;;6.52;100.00
20444;BME280;10381;53.730;10.010;2023-02-12T15:46:33;103394.66;;;6.48;100.00
20444;BME280;10381;53.730;10.010;2023-02-12T15:50:35;103389.47;;;6.45;100.00
20444;BME280;10381;53.730;10.010;2023-02-12T15:54:45;103399.94;;;6.46;100.00
20444;BME280;10381;53.730;10.010;2023-02-12T15:58:47;103397.38;;;6.45;100.00
20444;BME280;10381;53.730;10.010;2023-02-12T16:02:51;103401.81;;;6.43;100.00
20444;BME280;10381;53.730;10.010;2023-02-12T16:06:52;103399.38;;;6.35;100.00
20444;BME280;10381;53.730;10.010;2023-02-12T16:10:54;103402.09;;;6.33;100.00
20444;BME280;10381;53.730;10.010;2023-02-12T16:14:57;103414.50;;;6.28;100.00
20444;BME280;10381;53.730;10.010;2023-02-12T16:19:05;103411.91;;;6.27;100.00
20444;BME280;10381;53.730;10.010;2023-02-12T16:23:06;103418.13;;;6.24;100.00
20444;BME280;10381;53.730;10.010;2023-02-12T16:27:17;103424.25;;;6.25;100.00
20444;BME280;10381;53.730;10.010;2023-02-12T16:31:19;103427.72;;;6.27;100.00
20444;BME280;10381;53.730;10.010;2023-02-12T16:35:32;103427.63;;;6.30;100.00
20444;BME280;10381;53.730;10.010;2023-02-12T16:48:17;103440.91;;;6.25;100.00
20444;BME280;10381;53.730;10.010;2023-02-12T16:52:38;103442.56;;;6.29;100.00
20444;BME280;10381;53.730;10.010;2023-02-12T16:56:39;103446.13;;;6.28;100.00
20444;BME280;10381;53.730;10.010;2023-02-12T17:00:39;103442.66;;;6.26;100.00
20444;BME280;10381;53.730;10.010;2023-02-12T17:04:40;103448.75;;;6.28;100.00
20444;BME280;10381;53.730;10.010;2023-02-12T17:08:41;103439.19;;;6.24;100.00
20444;BME280;10381;53.730;10.010;2023-02-12T17:12:49;103439.19;;;6.24;100.00
20444;BME280;10381;53.730;10.010;2023-02-12T17:16:50;103443.53;;;6.25;100.00
20444;BME280;10381;53.730;10.010;2023-02-12T17:20:55;103440.97;;;6.24;100.00
20444;BME280;10381;53.730;10.010;2023-02-12T17:24:57;103441.06;;;6.21;100.00
20444;BME280;10381;53.730;10.010;2023-02-12T17:28:57;103446.25;;;6.22;100.00
20444;BME280;10381;53.730;10.010;2023-02-12T17:33:04;103455.13;;;6.18;100.00
20444;BME280;10381;53.730;10.010;2023-02-12T17:37:05;103456.09;;;6.15;100.00
20444;BME280;10381;53.730;10.010;2023-02-12T17:41:09;103460.41;;;6.18;100.00
20444;BME280;10381;53.730;10.010;2023-02-12T17:45:10;103461.34;;;6.15;100.00
20444;BME280;10381;53.730;10.010;2023-02-12T17:49:10;103457.88;;;6.15;100.00
20444;BME280;10381;53.730;10.010;2023-02-12T17:53:10;103469.22;;;6.17;100.00
20444;BME280;10381;53.730;10.010;2023-02-12T17:57:12;103467.50;;;6.16;100.00
20444;BME280;10381;53.730;10.010;2023-02-12T18:01:15;103471.09;;;6.13;100.00
20444;BME280;10381;53.730;10.010;2023-02-12T18:05:16;103470.16;;;6.14;100.00
20444;BME280;10381;53.730;10.010;2023-02-12T18:09:16;103468.28;;;6.19;100.00
20444;BME280;10381;53.730;10.010;2023-02-12T18:13:16;103478.72;;;6.23;100.00
20444;BME280;10381;53.730;10.010;2023-02-12T18:17:17;103468.19;;;6.23;100.00
20444;BME280;10381;53.730;10.010;2023-02-12T18:21:17;103476.19;;;6.18;100.00
20444;BME280;10381;53.730;10.010;2023-02-12T18:25:17;103476.38;;;6.12;100.00
20444;BME280;10381;53.730;10.010;2023-02-12T18:29:18;103484.38;;;6.09;100.00
20444;BME280;10381;53.730;10.010;2023-02-12T18:33:18;103483.53;;;6.07;100.00
20444;BME280;10381;53.730;10.010;2023-02-12T18:37:18;103482.63;;;6.08;100.00
20444;BME280;10381;53.730;10.010;2023-02-12T18:41:29;103487.00;;;6.09;100.00
20444;BME280;10381;53.730;10.010;2023-02-12T18:45:30;103487.78;;;6.11;100.00
20444;BME280;10381;53.730;10.010;2023-02-12T18:49:30;103486.13;;;6.08;100.00
20444;BME280;10381;53.730;10.010;2023-02-12T18:53:30;103490.50;;;6.09;100.00
20444;BME280;10381;53.730;10.010;2023-02-12T18:57:30;103487.00;;;6.09;100.00
20444;BME280;10381;53.730;10.010;2023-02-12T19:01:32;103481.75;;;6.09;100.00
20444;BME280;10381;53.730;10.010;2023-02-12T19:05:33;103485.25;;;6.08;100.00
20444;BME280;10381;53.730;10.010;2023-02-12T19:09:34;103481.78;;;6.06;100.00
20444;BME280;10381;53.730;10.010;2023-02-12T19:13:34;103491.44;;;6.07;100.00
20444;BME280;10381;53.730;10.010;2023-02-12T19:17:34;103489.69;;;6.06;100.00
20444;BME280;10381;53.730;10.010;2023-02-12T19:21:35;103492.31;;;6.06;100.00
20444;BME280;10381;53.730;10.010;2023-02-12T19:25:35;103482.63;;;6.08;100.00
20444;BME280;10381;53.730;10.010;2023-02-12T19:29:42;103481.78;;;6.06;100.00
20444;BME280;10381;53.730;10.010;2023-02-12T19:33:43;103484.44;;;6.06;100.00
20444;BME280;10381;53.730;10.010;2023-02-12T19:37:43;103482.72;;;6.05;100.00
20444;BME280;10381;53.730;10.010;2023-02-12T19:41:44;103483.59;;;6.04;100.00
20444;BME280;10381;53.730;10.010;2023-02-12T19:45:45;103481.84;;;6.04;100.00
20444;BME280;10381;53.730;10.010;2023-02-12T19:49:46;103494.13;;;6.04;100.00
20444;BME280;10381;53.730;10.010;2023-02-12T19:53:47;103486.31;;;6.01;100.00
20444;BME280;10381;53.730;10.010;2023-02-12T19:57:47;103486.28;;;6.02;100.00
20444;BME280;10381;53.730;10.010;2023-02-12T20:01:49;103488.09;;;6.00;100.00
20444;BME280;10381;53.730;10.010;2023-02-12T20:05:49;103494.22;;;6.01;100.00
20444;BME280;10381;53.730;10.010;2023-02-12T20:09:54;103487.25;;;5.98;100.00
20444;BME280;10381;53.730;10.010;2023-02-12T20:13:55;103489.91;;;5.98;100.00
20444;BME280;10381;53.730;10.010;2023-02-12T20:17:57;103483.81;;;5.96;100.00
20444;BME280;10381;53.730;10.010;2023-02-12T20:21:58;103474.19;;;5.93;100.00
20444;BME280;10381;53.730;10.010;2023-02-12T20:26:06;103492.69;;;5.90;100.00
20444;BME280;10381;53.730;10.010;2023-02-12T20:30:07;103489.22;;;5.88;100.00
20444;BME280;10381;53.730;10.010;2023-02-12T20:34:12;103489.22;;;5.88;100.00
20444;BME280;10381;53.730;10.010;2023-02-12T20:38:12;103491.13;;;5.83;100.00
20444;BME280;10381;53.730;10.010;2023-02-12T20:42:13;103487.56;;;5.84;100.00
20444;BME280;10381;53.730;10.010;2023-02-12T20:46:16;103477.97;;;5.83;100.00
20444;BME280;10381;53.730;10.010;2023-02-12T20:50:17;103480.50;;;5.86;100.00
20444;BME280;10381;53.730;10.010;2023-02-12T20:54:17;103491.13;;;5.83;100.00
20444;BME280;10381;53.730;10.010;2023-02-12T20:58:18;103485.81;;;5.85;100.00
20444;BME280;10381;53.730;10.010;2023-02-12T21:02:18;103486.78;;;5.82;100.00
20444;BME280;10381;53.730;10.010;2023-02-12T21:06:19;103482.31;;;5.84;100.00
20444;BME280;10381;53.730;10.010;2023-02-12T21:10:20;103480.69;;;5.80;100.00
20444;BME280;10381;53.730;10.010;2023-02-12T21:14:22;103485.84;;;5.83;100.00
20444;BME280;10381;53.730;10.010;2023-02-12T21:18:22;103478.88;;;5.82;100.00
20444;BME280;10381;53.730;10.010;2023-02-12T21:22:25;103478.06;;;5.80;100.00
20444;BME280;10381;53.730;10.010;2023-02-12T21:26:27;103475.44;;;5.79;100.00
20444;BME280;10381;53.730;10.010;2023-02-12T21:30:28;103463.09;;;5.82;100.00
20444;BME280;10381;53.730;10.010;2023-02-12T21:34:28;103464.81;;;5.83;100.00
20444;BME280;10381;53.730;10.010;2023-02-12T21:38:31;103471.88;;;5.81;100.00
20444;BME280;10381;53.730;10.010;2023-02-12T21:42:31;103477.13;;;5.81;100.00
20444;BME280;10381;53.730;10.010;2023-02-12T21:46:33;103476.28;;;5.81;100.00
20444;BME280;10381;53.730;10.010;2023-02-12T21:50:34;103471.91;;;5.80;100.00
20444;BME280;10381;53.730;10.010;2023-02-12T21:54:34;103475.47;;;5.77;100.00
20444;BME280;10381;53.730;10.010;2023-02-12T21:58:34;103472.84;;;5.77;100.00
20444;BME280;10381;53.730;10.010;2023-02-12T22:02:34;103472.03;;;5.75;100.00
20444;BME280;10381;53.730;10.010;2023-02-12T22:06:39;103470.28;;;5.74;100.00
20444;BME280;10381;53.730;10.010;2023-02-12T22:10:39;103472.94;;;5.74;100.00
20444;BME280;10381;53.730;10.010;2023-02-12T22:14:40;103470.34;;;5.72;100.00
20444;BME280;10381;53.730;10.010;2023-02-12T22:18:41;103471.31;;;5.68;100.00
20444;BME280;10381;53.730;10.010;2023-02-12T22:22:42;103471.28;;;5.70;100.00
20444;BME280;10381;53.730;10.010;2023-02-12T22:26:43;103473.03;;;5.69;100.00
20444;BME280;10381;53.730;10.010;2023-02-12T22:30:43;103473.91;;;5.70;100.00
20444;BME280;10381;53.730;10.010;2023-02-12T22:34:44;103469.56;;;5.69;100.00
20444;BME280;10381;53.730;10.010;2023-02-12T22:38:44;103469.56;;;5.67;100.00
20444;BME280;10381;53.730;10.010;2023-02-12T22:42:44;103467.94;;;5.63;100.00